sensor_id;sensor_type;location;lat;lon;timestamp;P1;durP1;ratioP1;P2;durP2;ratioP2
21837;SDS011;11081;45.946;6.140;2022-09-13T00:00:52;2.63;;;0.60;;
21837;SDS011;11081;45.946;6.140;2022-09-13T00:03:22;1.75;;;0.70;;
21837;SDS011;11081;45.946;6.140;2022-09-13T00:05:50;1.85;;;0.60;;
21837;SDS011;11081;45.946;6.140;2022-09-13T00:08:18;2.25;;;0.80;;
21837;SDS011;11081;45.946;6.140;2022-09-13T00:10:46;0.75;;;0.57;;
21837;SDS011;11081;45.946;6.140;2022-09-13T00:13:15;2.60;;;0.50;;
21837;SDS011;11081;45.946;6.140;2022-09-13T00:15:43;4.95;;;0.80;;
21837;SDS011;11081;45.946;6.140;2022-09-13T00:18:13;4.78;;;0.77;;
21837;SDS011;11081;45.946;6.140;2022-09-13T00:20:44;1.48;;;0.60;;
21837;SDS011;11081;45.946;6.140;2022-09-13T00:23:12;3.78;;;0.70;;
21837;SDS011;11081;45.946;6.140;2022-09-13T00:25:40;4.55;;;0.77;;
21837;SDS011;11081;45.946;6.140;2022-09-13T00:28:08;3.78;;;0.60;;
21837;SDS011;11081;45.946;6.140;2022-09-13T00:30:36;4.13;;;0.60;;
21837;SDS011;11081;45.946;6.140;2022-09-13T00:33:04;1.98;;;0.40;;
21837;SDS011;11081;45.946;6.140;2022-09-13T00:35:32;1.63;;;0.50;;
21837;SDS011;11081;45.946;6.140;2022-09-13T00:38:02;0.88;;;0.60;;
21837;SDS011;11081;45.946;6.140;2022-09-13T00:40:30;5.03;;;1.00;;
21837;SDS011;11081;45.946;6.140;2022-09-13T00:43:03;2.22;;;0.68;;
21837;SDS011;11081;45.946;6.140;2022-09-13T00:45:30;1.65;;;0.60;;
21837;SDS011;11081;45.946;6.140;2022-09-13T00:47:59;2.08;;;0.73;;
21837;SDS011;11081;45.946;6.140;2022-09-13T00:50:30;1.45;;;0.50;;
21837;SDS011;11081;45.946;6.140;2022-09-13T00:53:03;1.23;;;0.40;;
21837;SDS011;11081;45.946;6.140;2022-09-13T00:55:34;1.52;;;0.60;;
21837;SDS011;11081;45.946;6.140;2022-09-13T00:58:07;1.00;;;0.50;;
21837;SDS011;11081;45.946;6.140;2022-09-13T01:00:38;1.83;;;0.85;;
21837;SDS011;11081;45.946;6.140;2022-09-13T01:03:07;2.50;;;0.50;;
21837;SDS011;11081;45.946;6.140;2022-09-13T01:05:39;3.72;;;0.65;;
21837;SDS011;11081;45.946;6.140;2022-09-13T01:08:11;2.58;;;0.60;;
21837;SDS011;11081;45.946;6.140;2022-09-13T01:10:48;1.55;;;0.80;;
21837;SDS011;11081;45.946;6.140;2022-09-13T01:13:19;2.80;;;0.50;;
21837;SDS011;11081;45.946;6.140;2022-09-13T01:15:49;4.00;;;0.80;;
21837;SDS011;11081;45.946;6.140;2022-09-13T01:18:18;2.58;;;0.57;;
21837;SDS011;11081;45.946;6.140;2022-09-13T01:21:00;0.90;;;0.70;;
21837;SDS011;11081;45.946;6.140;2022-09-13T01:23:46;0.90;;;0.40;;
21837;SDS011;11081;45.946;6.140;2022-09-13T01:26:45;1.15;;;0.50;;
21837;SDS011;11081;45.946;6.140;2022-09-13T01:29:32;2.63;;;0.57;;
21837;SDS011;11081;45.946;6.140;2022-09-13T01:32:19;0.73;;;0.40;;
21837;SDS011;11081;45.946;6.140;2022-09-13T01:34:56;3.85;;;0.52;;
21837;SDS011;11081;45.946;6.140;2022-09-13T01:37:38;4.03;;;0.50;;
21837;SDS011;11081;45.946;6.140;2022-09-13T01:40:17;1.92;;;0.50;;
21837;SDS011;11081;45.946;6.140;2022-09-13T01:43:08;2.20;;;0.60;;
21837;SDS011;11081;45.946;6.140;2022-09-13T01:45:47;0.80;;;0.50;;
21837;SDS011;11081;45.946;6.140;2022-09-13T01:48:26;1.55;;;0.50;;
21837;SDS011;11081;45.946;6.140;2022-09-13T01:51:04;1.90;;;0.68;;
21837;SDS011;11081;45.946;6.140;2022-09-13T01:53:38;1.58;;;0.65;;
21837;SDS011;11081;45.946;6.140;2022-09-13T01:56:19;2.65;;;0.50;;
21837;SDS011;11081;45.946;6.140;2022-09-13T01:58:54;0.73;;;0.57;;
21837;SDS011;11081;45.946;6.140;2022-09-13T02:01:25;1.60;;;0.68;;
21837;SDS011;11081;45.946;6.140;2022-09-13T02:03:59;2.70;;;0.50;;
21837;SDS011;11081;45.946;6.140;2022-09-13T02:06:32;3.15;;;0.70;;
21837;SDS011;11081;45.946;6.140;2022-09-13T02:09:07;3.50;;;0.77;;
21837;SDS011;11081;45.946;6.140;2022-09-13T02:11:38;1.30;;;0.77;;
21837;SDS011;11081;45.946;6.140;2022-09-13T02:14:11;1.92;;;0.57;;
21837;SDS011;11081;45.946;6.140;2022-09-13T02:16:44;1.77;;;0.60;;
21837;SDS011;11081;45.946;6.140;2022-09-13T02:19:20;2.63;;;0.40;;
21837;SDS011;11081;45.946;6.140;2022-09-13T02:21:53;0.80;;;0.60;;
21837;SDS011;11081;45.946;6.140;2022-09-13T02:24:25;4.25;;;0.70;;
21837;SDS011;11081;45.946;6.140;2022-09-13T02:26:57;1.85;;;0.50;;
21837;SDS011;11081;45.946;6.140;2022-09-13T02:29:29;2.90;;;0.70;;
21837;SDS011;11081;45.946;6.140;2022-09-13T02:32:01;2.90;;;0.50;;
21837;SDS011;11081;45.946;6.140;2022-09-13T02:34:35;0.73;;;0.60;;
21837;SDS011;11081;45.946;6.140;2022-09-13T02:37:07;4.65;;;1.02;;
21837;SDS011;11081;45.946;6.140;2022-09-13T02:39:39;1.17;;;0.38;;
21837;SDS011;11081;45.946;6.140;2022-09-13T02:42:13;3.00;;;0.80;;
21837;SDS011;11081;45.946;6.140;2022-09-13T02:44:45;2.30;;;0.50;;
21837;SDS011;11081;45.946;6.140;2022-09-13T02:47:20;1.30;;;0.50;;
21837;SDS011;11081;45.946;6.140;2022-09-13T02:50:01;2.28;;;0.60;;
21837;SDS011;11081;45.946;6.140;2022-09-13T02:52:38;2.80;;;0.60;;
21837;SDS011;11081;45.946;6.140;2022-09-13T02:55:17;1.27;;;0.40;;
21837;SDS011;11081;45.946;6.140;2022-09-13T02:57:53;0.93;;;0.55;;
21837;SDS011;11081;45.946;6.140;2022-09-13T03:00:29;3.78;;;0.52;;
21837;SDS011;11081;45.946;6.140;2022-09-13T03:02:58;0.45;;;0.40;;
21837;SDS011;11081;45.946;6.140;2022-09-13T03:05:32;1.10;;;0.70;;
21837;SDS011;11081;45.946;6.140;2022-09-13T03:08:00;2.92;;;0.60;;
21837;SDS011;11081;45.946;6.140;2022-09-13T03:10:29;1.95;;;0.52;;
21837;SDS011;11081;45.946;6.140;2022-09-13T03:13:10;5.82;;;0.73;;
21837;SDS011;11081;45.946;6.140;2022-09-13T03:16:03;1.63;;;0.70;;
21837;SDS011;11081;45.946;6.140;2022-09-13T03:18:45;1.48;;;0.60;;
21837;SDS011;11081;45.946;6.140;2022-09-13T03:21:29;2.13;;;0.40;;
21837;SDS011;11081;45.946;6.140;2022-09-13T03:24:13;3.22;;;0.75;;
21837;SDS011;11081;45.946;6.140;2022-09-13T03:26:53;1.85;;;0.70;;
21837;SDS011;11081;45.946;6.140;2022-09-13T03:29:34;4.95;;;0.70;;
21837;SDS011;11081;45.946;6.140;2022-09-13T03:32:15;3.17;;;0.52;;
21837;SDS011;11081;45.946;6.140;2022-09-13T03:34:52;5.50;;;0.68;;
21837;SDS011;11081;45.946;6.140;2022-09-13T03:37:28;1.85;;;0.50;;
21837;SDS011;11081;45.946;6.140;2022-09-13T03:40:02;1.27;;;0.45;;
21837;SDS011;11081;45.946;6.140;2022-09-13T03:42:37;1.25;;;0.60;;
21837;SDS011;11081;45.946;6.140;2022-09-13T03:45:11;5.82;;;0.77;;
21837;SDS011;11081;45.946;6.140;2022-09-13T03:47:43;4.50;;;0.70;;
21837;SDS011;11081;45.946;6.140;2022-09-13T03:50:15;3.63;;;0.70;;
21837;SDS011;11081;45.946;6.140;2022-09-13T03:52:47;3.45;;;0.60;;
21837;SDS011;11081;45.946;6.140;2022-09-13T03:55:20;3.15;;;0.65;;
21837;SDS011;11081;45.946;6.140;2022-09-13T03:57:49;2.85;;;0.57;;
21837;SDS011;11081;45.946;6.140;2022-09-13T04:00:17;3.90;;;0.43;;
21837;SDS011;11081;45.946;6.140;2022-09-13T04:02:45;3.28;;;0.70;;
21837;SDS011;11081;45.946;6.140;2022-09-13T04:05:13;1.25;;;0.47;;
21837;SDS011;11081;45.946;6.140;2022-09-13T04:07:41;1.42;;;0.60;;
21837;SDS011;11081;45.946;6.140;2022-09-13T04:10:10;7.40;;;0.80;;
21837;SDS011;11081;45.946;6.140;2022-09-13T04:12:39;2.33;;;0.65;;
21837;SDS011;11081;45.946;6.140;2022-09-13T04:15:08;1.42;;;0.93;;
21837;SDS011;11081;45.946;6.140;2022-09-13T04:17:36;4.38;;;0.90;;
21837;SDS011;11081;45.946;6.140;2022-09-13T04:20:04;2.22;;;1.10;;
21837;SDS011;11081;45.946;6.140;2022-09-13T04:22:33;1.45;;;0.50;;
21837;SDS011;11081;45.946;6.140;2022-09-13T04:25:00;1.33;;;0.50;;
21837;SDS011;11081;45.946;6.140;2022-09-13T04:27:30;2.47;;;0.60;;
21837;SDS011;11081;45.946;6.140;2022-09-13T04:29:58;1.25;;;0.50;;
21837;SDS011;11081;45.946;6.140;2022-09-13T04:32:26;1.90;;;0.52;;
21837;SDS011;11081;45.946;6.140;2022-09-13T04:34:55;1.88;;;0.65;;
21837;SDS011;11081;45.946;6.140;2022-09-13T04:37:22;3.08;;;0.60;;
21837;SDS011;11081;45.946;6.140;2022-09-13T04:39:50;3.35;;;0.70;;
21837;SDS011;11081;45.946;6.140;2022-09-13T04:42:19;4.95;;;0.80;;
21837;SDS011;11081;45.946;6.140;2022-09-13T04:44:48;2.70;;;0.80;;
21837;SDS011;11081;45.946;6.140;2022-09-13T04:47:16;3.95;;;0.73;;
21837;SDS011;11081;45.946;6.140;2022-09-13T04:49:44;4.07;;;1.08;;
21837;SDS011;11081;45.946;6.140;2022-09-13T04:52:13;3.58;;;0.90;;
21837;SDS011;11081;45.946;6.140;2022-09-13T04:54:41;3.22;;;0.55;;
21837;SDS011;11081;45.946;6.140;2022-09-13T04:57:09;1.00;;;0.60;;
21837;SDS011;11081;45.946;6.140;2022-09-13T04:59:38;2.70;;;0.60;;
21837;SDS011;11081;45.946;6.140;2022-09-13T05:02:07;5.18;;;0.80;;
21837;SDS011;11081;45.946;6.140;2022-09-13T05:04:35;4.53;;;0.50;;
21837;SDS011;11081;45.946;6.140;2022-09-13T05:07:03;1.48;;;0.40;;
21837;SDS011;11081;45.946;6.140;2022-09-13T05:09:31;3.03;;;0.60;;
21837;SDS011;11081;45.946;6.140;2022-09-13T05:11:59;0.70;;;0.55;;
21837;SDS011;11081;45.946;6.140;2022-09-13T05:14:27;2.17;;;0.82;;
21837;SDS011;11081;45.946;6.140;2022-09-13T05:16:55;2.40;;;0.50;;
21837;SDS011;11081;45.946;6.140;2022-09-13T05:19:24;1.00;;;0.47;;
21837;SDS011;11081;45.946;6.140;2022-09-13T05:21:52;4.03;;;0.75;;
21837;SDS011;11081;45.946;6.140;2022-09-13T05:24:20;0.73;;;0.43;;
21837;SDS011;11081;45.946;6.140;2022-09-13T05:26:48;4.63;;;0.60;;
21837;SDS011;11081;45.946;6.140;2022-09-13T05:29:16;2.60;;;0.65;;
21837;SDS011;11081;45.946;6.140;2022-09-13T05:31:44;1.83;;;0.73;;
21837;SDS011;11081;45.946;6.140;2022-09-13T05:34:13;6.57;;;0.60;;
21837;SDS011;11081;45.946;6.140;2022-09-13T05:36:44;1.38;;;0.40;;
21837;SDS011;11081;45.946;6.140;2022-09-13T05:39:19;1.38;;;0.60;;
21837;SDS011;11081;45.946;6.140;2022-09-13T05:42:08;1.63;;;0.50;;
21837;SDS011;11081;45.946;6.140;2022-09-13T05:44:36;2.47;;;0.82;;
21837;SDS011;11081;45.946;6.140;2022-09-13T05:47:04;1.75;;;0.75;;
21837;SDS011;11081;45.946;6.140;2022-09-13T05:49:32;1.88;;;0.70;;
21837;SDS011;11081;45.946;6.140;2022-09-13T05:52:16;1.98;;;0.93;;
21837;SDS011;11081;45.946;6.140;2022-09-13T05:54:44;4.07;;;1.20;;
21837;SDS011;11081;45.946;6.140;2022-09-13T05:57:12;5.88;;;0.98;;
21837;SDS011;11081;45.946;6.140;2022-09-13T05:59:40;3.65;;;1.00;;
21837;SDS011;11081;45.946;6.140;2022-09-13T06:02:09;3.25;;;0.98;;
21837;SDS011;11081;45.946;6.140;2022-09-13T06:04:37;2.28;;;1.00;;
21837;SDS011;11081;45.946;6.140;2022-09-13T06:07:05;3.83;;;0.80;;
21837;SDS011;11081;45.946;6.140;2022-09-13T06:09:34;3.92;;;0.73;;
21837;SDS011;11081;45.946;6.140;2022-09-13T06:12:02;2.33;;;0.90;;
21837;SDS011;11081;45.946;6.140;2022-09-13T06:14:31;3.08;;;0.95;;
21837;SDS011;11081;45.946;6.140;2022-09-13T06:16:58;3.42;;;0.95;;
21837;SDS011;11081;45.946;6.140;2022-09-13T06:19:26;3.67;;;1.20;;
21837;SDS011;11081;45.946;6.140;2022-09-13T06:21:54;4.22;;;1.00;;
21837;SDS011;11081;45.946;6.140;2022-09-13T06:24:22;9.70;;;1.27;;
21837;SDS011;11081;45.946;6.140;2022-09-13T06:26:51;4.00;;;1.10;;
21837;SDS011;11081;45.946;6.140;2022-09-13T06:29:20;3.88;;;1.17;;
21837;SDS011;11081;45.946;6.140;2022-09-13T06:31:48;7.32;;;2.50;;
21837;SDS011;11081;45.946;6.140;2022-09-13T06:34:16;10.07;;;3.72;;
21837;SDS011;11081;45.946;6.140;2022-09-13T06:36:44;5.03;;;2.28;;
21837;SDS011;11081;45.946;6.140;2022-09-13T06:39:12;12.95;;;1.65;;
21837;SDS011;11081;45.946;6.140;2022-09-13T06:41:40;9.32;;;2.22;;
21837;SDS011;11081;45.946;6.140;2022-09-13T06:44:09;2.47;;;1.25;;
21837;SDS011;11081;45.946;6.140;2022-09-13T06:46:37;3.97;;;1.35;;
21837;SDS011;11081;45.946;6.140;2022-09-13T06:49:05;6.43;;;1.20;;
21837;SDS011;11081;45.946;6.140;2022-09-13T06:51:35;4.10;;;1.15;;
21837;SDS011;11081;45.946;6.140;2022-09-13T06:54:03;3.53;;;1.00;;
21837;SDS011;11081;45.946;6.140;2022-09-13T06:56:32;4.78;;;0.95;;
21837;SDS011;11081;45.946;6.140;2022-09-13T06:59:01;2.63;;;1.00;;
21837;SDS011;11081;45.946;6.140;2022-09-13T07:01:33;5.18;;;1.10;;
21837;SDS011;11081;45.946;6.140;2022-09-13T07:04:03;8.18;;;1.00;;
21837;SDS011;11081;45.946;6.140;2022-09-13T07:06:33;4.32;;;1.27;;
21837;SDS011;11081;45.946;6.140;2022-09-13T07:09:04;4.43;;;1.05;;
21837;SDS011;11081;45.946;6.140;2022-09-13T07:11:34;2.45;;;1.02;;
21837;SDS011;11081;45.946;6.140;2022-09-13T07:14:04;2.72;;;0.75;;
21837;SDS011;11081;45.946;6.140;2022-09-13T07:16:35;5.07;;;1.00;;
21837;SDS011;11081;45.946;6.140;2022-09-13T07:19:04;4.80;;;1.00;;
21837;SDS011;11081;45.946;6.140;2022-09-13T07:21:35;3.20;;;1.00;;
21837;SDS011;11081;45.946;6.140;2022-09-13T07:24:04;1.05;;;0.68;;
21837;SDS011;11081;45.946;6.140;2022-09-13T07:26:32;0.93;;;0.65;;
21837;SDS011;11081;45.946;6.140;2022-09-13T07:29:02;5.47;;;1.00;;
21837;SDS011;11081;45.946;6.140;2022-09-13T07:31:32;3.30;;;0.90;;
21837;SDS011;11081;45.946;6.140;2022-09-13T07:34:03;5.78;;;1.10;;
21837;SDS011;11081;45.946;6.140;2022-09-13T07:36:34;5.47;;;1.55;;
21837;SDS011;11081;45.946;6.140;2022-09-13T07:39:03;5.40;;;1.70;;
21837;SDS011;11081;45.946;6.140;2022-09-13T07:41:35;7.20;;;1.67;;
21837;SDS011;11081;45.946;6.140;2022-09-13T07:44:03;9.48;;;1.70;;
21837;SDS011;11081;45.946;6.140;2022-09-13T07:46:33;7.03;;;1.50;;
21837;SDS011;11081;45.946;6.140;2022-09-13T07:49:10;7.55;;;1.63;;
21837;SDS011;11081;45.946;6.140;2022-09-13T07:51:40;5.85;;;1.50;;
21837;SDS011;11081;45.946;6.140;2022-09-13T07:54:10;3.33;;;1.33;;
21837;SDS011;11081;45.946;6.140;2022-09-13T07:56:39;8.27;;;0.95;;
21837;SDS011;11081;45.946;6.140;2022-09-13T07:59:10;2.40;;;0.90;;
21837;SDS011;11081;45.946;6.140;2022-09-13T08:01:40;2.08;;;1.10;;
21837;SDS011;11081;45.946;6.140;2022-09-13T08:04:10;1.90;;;1.20;;
21837;SDS011;11081;45.946;6.140;2022-09-13T08:06:39;8.48;;;1.33;;
21837;SDS011;11081;45.946;6.140;2022-09-13T08:09:08;2.55;;;1.10;;
21837;SDS011;11081;45.946;6.140;2022-09-13T08:11:37;3.03;;;0.98;;
21837;SDS011;11081;45.946;6.140;2022-09-13T08:14:07;3.60;;;1.23;;
21837;SDS011;11081;45.946;6.140;2022-09-13T08:16:37;5.47;;;1.10;;
21837;SDS011;11081;45.946;6.140;2022-09-13T08:19:06;5.47;;;1.25;;
21837;SDS011;11081;45.946;6.140;2022-09-13T08:21:37;10.68;;;1.23;;
21837;SDS011;11081;45.946;6.140;2022-09-13T08:24:07;4.47;;;1.00;;
21837;SDS011;11081;45.946;6.140;2022-09-13T08:26:40;3.15;;;0.98;;
21837;SDS011;11081;45.946;6.140;2022-09-13T08:29:09;9.38;;;1.00;;
21837;SDS011;11081;45.946;6.140;2022-09-13T08:31:39;1.73;;;0.93;;
21837;SDS011;11081;45.946;6.140;2022-09-13T08:34:09;4.75;;;1.10;;
21837;SDS011;11081;45.946;6.140;2022-09-13T08:36:39;8.13;;;1.13;;
21837;SDS011;11081;45.946;6.140;2022-09-13T08:39:07;7.05;;;1.00;;
21837;SDS011;11081;45.946;6.140;2022-09-13T08:44:28;5.13;;;0.98;;
21837;SDS011;11081;45.946;6.140;2022-09-13T08:47:03;5.45;;;1.13;;
21837;SDS011;11081;45.946;6.140;2022-09-13T08:49:45;4.82;;;1.05;;
21837;SDS011;11081;45.946;6.140;2022-09-13T08:52:20;8.25;;;1.10;;
21837;SDS011;11081;45.946;6.140;2022-09-13T08:54:56;3.70;;;1.08;;
21837;SDS011;11081;45.946;6.140;2022-09-13T08:57:25;7.30;;;1.25;;
21837;SDS011;11081;45.946;6.140;2022-09-13T09:00:04;6.47;;;1.00;;
21837;SDS011;11081;45.946;6.140;2022-09-13T09:02:48;5.53;;;0.98;;
21837;SDS011;11081;45.946;6.140;2022-09-13T09:05:25;3.72;;;0.82;;
21837;SDS011;11081;45.946;6.140;2022-09-13T09:07:58;3.20;;;0.88;;
21837;SDS011;11081;45.946;6.140;2022-09-13T09:10:28;2.03;;;0.90;;
21837;SDS011;11081;45.946;6.140;2022-09-13T09:13:01;4.20;;;0.90;;
21837;SDS011;11081;45.946;6.140;2022-09-13T09:15:33;3.47;;;0.90;;
21837;SDS011;11081;45.946;6.140;2022-09-13T09:18:05;2.42;;;0.80;;
21837;SDS011;11081;45.946;6.140;2022-09-13T09:20:38;2.75;;;0.80;;
21837;SDS011;11081;45.946;6.140;2022-09-13T09:23:13;2.70;;;0.70;;
21837;SDS011;11081;45.946;6.140;2022-09-13T09:25:47;1.35;;;0.73;;
21837;SDS011;11081;45.946;6.140;2022-09-13T09:28:18;2.50;;;1.30;;
21837;SDS011;11081;45.946;6.140;2022-09-13T09:30:51;4.82;;;1.40;;
21837;SDS011;11081;45.946;6.140;2022-09-13T09:33:29;1.95;;;1.17;;
21837;SDS011;11081;45.946;6.140;2022-09-13T09:36:14;3.63;;;1.35;;
21837;SDS011;11081;45.946;6.140;2022-09-13T09:38:52;3.38;;;1.42;;
21837;SDS011;11081;45.946;6.140;2022-09-13T09:41:23;2.40;;;1.45;;
21837;SDS011;11081;45.946;6.140;2022-09-13T09:43:55;2.67;;;1.40;;
21837;SDS011;11081;45.946;6.140;2022-09-13T09:46:28;3.22;;;1.23;;
21837;SDS011;11081;45.946;6.140;2022-09-13T09:49:01;3.15;;;1.20;;
21837;SDS011;11081;45.946;6.140;2022-09-13T09:51:54;5.93;;;1.20;;
21837;SDS011;11081;45.946;6.140;2022-09-13T09:54:25;3.70;;;1.17;;
21837;SDS011;11081;45.946;6.140;2022-09-13T09:56:56;4.85;;;1.10;;
21837;SDS011;11081;45.946;6.140;2022-09-13T09:59:25;1.83;;;1.10;;
21837;SDS011;11081;45.946;6.140;2022-09-13T10:01:56;2.42;;;1.30;;
21837;SDS011;11081;45.946;6.140;2022-09-13T10:04:25;4.95;;;1.23;;
21837;SDS011;11081;45.946;6.140;2022-09-13T10:07:08;1.73;;;1.00;;
21837;SDS011;11081;45.946;6.140;2022-09-13T10:09:53;4.50;;;1.00;;
21837;SDS011;11081;45.946;6.140;2022-09-13T10:12:25;7.20;;;1.50;;
21837;SDS011;11081;45.946;6.140;2022-09-13T10:15:02;1.98;;;1.05;;
21837;SDS011;11081;45.946;6.140;2022-09-13T10:17:32;1.98;;;0.93;;
21837;SDS011;11081;45.946;6.140;2022-09-13T10:20:00;3.78;;;1.00;;
21837;SDS011;11081;45.946;6.140;2022-09-13T10:22:31;1.88;;;1.20;;
21837;SDS011;11081;45.946;6.140;2022-09-13T10:25:14;3.25;;;1.20;;
21837;SDS011;11081;45.946;6.140;2022-09-13T10:27:48;3.50;;;1.58;;
21837;SDS011;11081;45.946;6.140;2022-09-13T10:30:25;2.30;;;1.50;;
21837;SDS011;11081;45.946;6.140;2022-09-13T10:32:59;3.15;;;1.40;;
21837;SDS011;11081;45.946;6.140;2022-09-13T10:35:29;3.45;;;1.60;;
21837;SDS011;11081;45.946;6.140;2022-09-13T10:37:57;4.90;;;1.30;;
21837;SDS011;11081;45.946;6.140;2022-09-13T10:40:28;10.68;;;1.60;;
21837;SDS011;11081;45.946;6.140;2022-09-13T10:42:59;6.05;;;1.45;;
21837;SDS011;11081;45.946;6.140;2022-09-13T10:45:30;5.45;;;1.60;;
21837;SDS011;11081;45.946;6.140;2022-09-13T10:48:00;1.88;;;1.17;;
21837;SDS011;11081;45.946;6.140;2022-09-13T10:50:32;4.60;;;1.50;;
21837;SDS011;11081;45.946;6.140;2022-09-13T10:53:01;7.50;;;1.80;;
21837;SDS011;11081;45.946;6.140;2022-09-13T10:55:33;2.70;;;1.50;;
21837;SDS011;11081;45.946;6.140;2022-09-13T10:58:12;2.47;;;1.58;;
21837;SDS011;11081;45.946;6.140;2022-09-13T11:04:09;2.25;;;1.40;;
21837;SDS011;11081;45.946;6.140;2022-09-13T11:07:00;5.57;;;1.70;;
21837;SDS011;11081;45.946;6.140;2022-09-13T11:09:42;4.38;;;1.33;;
21837;SDS011;11081;45.946;6.140;2022-09-13T11:12:21;5.45;;;1.83;;
21837;SDS011;11081;45.946;6.140;2022-09-13T11:14:58;5.95;;;1.30;;
21837;SDS011;11081;45.946;6.140;2022-09-13T11:17:36;7.22;;;1.42;;
21837;SDS011;11081;45.946;6.140;2022-09-13T11:20:27;6.45;;;1.90;;
21837;SDS011;11081;45.946;6.140;2022-09-13T11:23:07;4.75;;;1.83;;
21837;SDS011;11081;45.946;6.140;2022-09-13T11:25:57;3.83;;;1.38;;
21837;SDS011;11081;45.946;6.140;2022-09-13T11:28:37;4.13;;;1.50;;
21837;SDS011;11081;45.946;6.140;2022-09-13T11:31:20;2.38;;;1.13;;
21837;SDS011;11081;45.946;6.140;2022-09-13T11:34:03;4.25;;;1.40;;
21837;SDS011;11081;45.946;6.140;2022-09-13T11:36:55;3.58;;;1.73;;
21837;SDS011;11081;45.946;6.140;2022-09-13T11:39:36;5.78;;;1.17;;
21837;SDS011;11081;45.946;6.140;2022-09-13T11:42:10;2.67;;;1.00;;
21837;SDS011;11081;45.946;6.140;2022-09-13T11:47:56;4.80;;;1.08;;
21837;SDS011;11081;45.946;6.140;2022-09-13T11:50:35;1.98;;;1.20;;
21837;SDS011;11081;45.946;6.140;2022-09-13T11:53:15;2.20;;;1.00;;
21837;SDS011;11081;45.946;6.140;2022-09-13T11:56:04;5.50;;;1.70;;
21837;SDS011;11081;45.946;6.140;2022-09-13T11:58:36;1.48;;;1.00;;
21837;SDS011;11081;45.946;6.140;2022-09-13T12:01:12;4.68;;;1.17;;
21837;SDS011;11081;45.946;6.140;2022-09-13T12:03:48;3.65;;;1.10;;
21837;SDS011;11081;45.946;6.140;2022-09-13T12:06:24;3.33;;;1.20;;
21837;SDS011;11081;45.946;6.140;2022-09-13T12:08:56;4.10;;;0.93;;
21837;SDS011;11081;45.946;6.140;2022-09-13T12:11:30;2.25;;;1.23;;
21837;SDS011;11081;45.946;6.140;2022-09-13T12:14:02;4.22;;;0.90;;
21837;SDS011;11081;45.946;6.140;2022-09-13T12:16:35;2.63;;;1.42;;
21837;SDS011;11081;45.946;6.140;2022-09-13T12:19:10;4.45;;;0.95;;
21837;SDS011;11081;45.946;6.140;2022-09-13T12:21:43;3.17;;;1.30;;
21837;SDS011;11081;45.946;6.140;2022-09-13T12:24:14;4.22;;;1.08;;
21837;SDS011;11081;45.946;6.140;2022-09-13T12:26:46;4.72;;;1.00;;
21837;SDS011;11081;45.946;6.140;2022-09-13T12:29:20;1.77;;;0.90;;
21837;SDS011;11081;45.946;6.140;2022-09-13T12:31:57;4.47;;;1.05;;
21837;SDS011;11081;45.946;6.140;2022-09-13T12:34:30;5.20;;;1.20;;
21837;SDS011;11081;45.946;6.140;2022-09-13T12:37:08;6.90;;;1.42;;
21837;SDS011;11081;45.946;6.140;2022-09-13T12:45:51;2.13;;;1.25;;
21837;SDS011;11081;45.946;6.140;2022-09-13T12:48:46;4.55;;;0.77;;
21837;SDS011;11081;45.946;6.140;2022-09-13T12:51:28;2.55;;;0.90;;
21837;SDS011;11081;45.946;6.140;2022-09-13T12:54:21;2.25;;;1.00;;
21837;SDS011;11081;45.946;6.140;2022-09-13T12:57:06;2.63;;;1.05;;
21837;SDS011;11081;45.946;6.140;2022-09-13T12:59:53;2.35;;;1.10;;
21837;SDS011;11081;45.946;6.140;2022-09-13T13:02:49;4.82;;;1.00;;
21837;SDS011;11081;45.946;6.140;2022-09-13T13:05:23;3.00;;;1.15;;
21837;SDS011;11081;45.946;6.140;2022-09-13T13:07:56;3.85;;;1.10;;
21837;SDS011;11081;45.946;6.140;2022-09-13T13:10:29;3.30;;;1.13;;
21837;SDS011;11081;45.946;6.140;2022-09-13T13:13:09;5.57;;;1.20;;
21837;SDS011;11081;45.946;6.140;2022-09-13T13:15:59;5.05;;;1.50;;
21837;SDS011;11081;45.946;6.140;2022-09-13T13:18:41;4.50;;;1.20;;
21837;SDS011;11081;45.946;6.140;2022-09-13T13:21:23;6.70;;;1.17;;
21837;SDS011;11081;45.946;6.140;2022-09-13T13:33:10;5.10;;;1.25;;
21837;SDS011;11081;45.946;6.140;2022-09-13T13:35:41;4.70;;;1.10;;
21837;SDS011;11081;45.946;6.140;2022-09-13T13:38:14;5.72;;;1.48;;
21837;SDS011;11081;45.946;6.140;2022-09-13T13:41:04;2.40;;;1.33;;
21837;SDS011;11081;45.946;6.140;2022-09-13T13:43:38;4.53;;;1.30;;
21837;SDS011;11081;45.946;6.140;2022-09-13T13:48:54;4.50;;;1.13;;
21837;SDS011;11081;45.946;6.140;2022-09-13T13:51:23;3.65;;;1.33;;
21837;SDS011;11081;45.946;6.140;2022-09-13T13:54:29;4.90;;;1.30;;
21837;SDS011;11081;45.946;6.140;2022-09-13T13:56:56;3.63;;;1.20;;
21837;SDS011;11081;45.946;6.140;2022-09-13T13:59:25;2.08;;;1.48;;
21837;SDS011;11081;45.946;6.140;2022-09-13T14:01:58;2.72;;;1.20;;
21837;SDS011;11081;45.946;6.140;2022-09-13T14:04:39;4.30;;;1.48;;
21837;SDS011;11081;45.946;6.140;2022-09-13T14:07:25;9.73;;;1.30;;
21837;SDS011;11081;45.946;6.140;2022-09-13T14:10:04;7.90;;;1.65;;
21837;SDS011;11081;45.946;6.140;2022-09-13T14:12:43;3.60;;;1.10;;
21837;SDS011;11081;45.946;6.140;2022-09-13T14:15:32;5.00;;;1.10;;
21837;SDS011;11081;45.946;6.140;2022-09-13T14:18:18;5.32;;;1.05;;
21837;SDS011;11081;45.946;6.140;2022-09-13T14:21:02;3.10;;;1.25;;
21837;SDS011;11081;45.946;6.140;2022-09-13T14:23:31;11.45;;;1.60;;
21837;SDS011;11081;45.946;6.140;2022-09-13T14:26:02;5.35;;;1.27;;
21837;SDS011;11081;45.946;6.140;2022-09-13T14:28:32;3.67;;;1.20;;
21837;SDS011;11081;45.946;6.140;2022-09-13T14:31:01;3.22;;;1.10;;
21837;SDS011;11081;45.946;6.140;2022-09-13T14:33:30;4.63;;;1.60;;
21837;SDS011;11081;45.946;6.140;2022-09-13T14:36:02;7.20;;;1.50;;
21837;SDS011;11081;45.946;6.140;2022-09-13T14:38:32;7.03;;;1.45;;
21837;SDS011;11081;45.946;6.140;2022-09-13T14:41:10;6.00;;;1.63;;
21837;SDS011;11081;45.946;6.140;2022-09-13T14:43:40;3.50;;;1.65;;
21837;SDS011;11081;45.946;6.140;2022-09-13T14:46:09;3.47;;;1.35;;
21837;SDS011;11081;45.946;6.140;2022-09-13T14:48:45;3.28;;;1.48;;
21837;SDS011;11081;45.946;6.140;2022-09-13T14:51:18;3.67;;;1.35;;
21837;SDS011;11081;45.946;6.140;2022-09-13T14:53:51;3.80;;;1.25;;
21837;SDS011;11081;45.946;6.140;2022-09-13T14:56:27;4.80;;;1.45;;
21837;SDS011;11081;45.946;6.140;2022-09-13T14:59:03;12.15;;;1.60;;
21837;SDS011;11081;45.946;6.140;2022-09-13T15:01:33;3.90;;;1.38;;
21837;SDS011;11081;45.946;6.140;2022-09-13T15:04:02;7.32;;;1.70;;
21837;SDS011;11081;45.946;6.140;2022-09-13T15:06:34;3.47;;;1.63;;
21837;SDS011;11081;45.946;6.140;2022-09-13T15:09:15;3.88;;;2.00;;
21837;SDS011;11081;45.946;6.140;2022-09-13T15:14:48;4.88;;;1.55;;
21837;SDS011;11081;45.946;6.140;2022-09-13T15:17:16;9.00;;;1.63;;
21837;SDS011;11081;45.946;6.140;2022-09-13T15:19:47;7.03;;;1.63;;
21837;SDS011;11081;45.946;6.140;2022-09-13T15:22:22;3.00;;;1.42;;
21837;SDS011;11081;45.946;6.140;2022-09-13T15:24:52;7.35;;;1.50;;
21837;SDS011;11081;45.946;6.140;2022-09-13T15:27:25;5.85;;;1.65;;
21837;SDS011;11081;45.946;6.140;2022-09-13T15:29:56;4.20;;;1.30;;
21837;SDS011;11081;45.946;6.140;2022-09-13T15:32:29;4.32;;;1.70;;
21837;SDS011;11081;45.946;6.140;2022-09-13T15:35:00;5.50;;;1.60;;
21837;SDS011;11081;45.946;6.140;2022-09-13T15:37:33;5.40;;;2.00;;
21837;SDS011;11081;45.946;6.140;2022-09-13T15:40:18;3.70;;;1.92;;
21837;SDS011;11081;45.946;6.140;2022-09-13T15:42:49;5.45;;;2.00;;
21837;SDS011;11081;45.946;6.140;2022-09-13T15:45:18;2.63;;;1.67;;
21837;SDS011;11081;45.946;6.140;2022-09-13T15:47:48;8.30;;;1.92;;
21837;SDS011;11081;45.946;6.140;2022-09-13T15:50:19;9.02;;;1.95;;
21837;SDS011;11081;45.946;6.140;2022-09-13T15:52:49;4.28;;;1.40;;
21837;SDS011;11081;45.946;6.140;2022-09-13T15:55:17;4.97;;;1.80;;